.
WxDataArchive / Data Records for 2015-08-04
2015-08-03 August 2015 2015-08-05

Data Records for Tuesday, 04 August 2015

Time	Temp	Chill	HIndex	Humid	Dewpt	 Wind 	HiWind	WindDir	Rain 	Barom
-----	----	-----	------	-----	-----	------	------	-------	-----	-----
00:00	62.1	62.1	62.1	77	54.8	0	0	---	0.00	29.863 
00:05	62.0	62.0	62.0	78	55.1	0	0	---	0.00	29.863 
00:10	61.8	61.8	61.8	78	54.9	0	0	---	0.00	29.863 
00:15	61.6	61.6	61.6	79	55.0	0	0	---	0.00	29.863 
00:20	61.5	61.5	61.5	80	55.3	0	0	---	0.00	29.863 
00:25	61.3	61.3	61.3	80	55.1	0	0	---	0.00	29.863 
00:30	61.2	61.2	61.2	80	55.0	0	0	---	0.00	29.865 
00:35	61.2	61.2	61.2	80	55.0	0	0	---	0.00	29.865 
00:40	61.0	61.0	61.0	80	54.8	0	0	---	0.00	29.865 
00:45	60.9	60.9	60.9	80	54.7	0	0	---	0.00	29.865 
00:50	60.7	60.7	60.7	80	54.5	0	0	---	0.00	29.865 
00:55	60.5	60.5	60.5	81	54.6	0	0	---	0.00	29.865 
01:00	60.4	60.4	60.4	81	54.5	0	0	---	0.00	29.867 
01:05	60.4	60.4	60.4	82	54.9	0	0	---	0.00	29.867 
01:10	60.2	60.2	60.2	82	54.7	0	0	---	0.00	29.867 
01:15	60.1	60.1	60.1	83	54.9	0	0	---	0.00	29.869 
01:20	60.1	60.1	60.1	83	54.9	0	0	---	0.00	29.869 
01:25	59.9	59.9	59.9	83	54.7	0	0	---	0.00	29.869 
01:30	59.9	59.9	59.9	83	54.7	0	0	---	0.00	29.866 
01:35	59.8	59.8	59.8	83	54.6	0	0	---	0.00	29.866 
01:40	59.8	59.8	59.8	83	54.6	0	0	---	0.00	29.866 
01:45	59.6	59.6	59.6	83	54.4	0	0	---	0.00	29.868 
01:50	59.6	59.6	59.6	83	54.4	0	0	---	0.00	29.868 
01:55	59.8	59.8	59.8	83	54.6	0	0	---	0.00	29.868 
02:00	59.6	59.6	59.6	83	54.4	0	0	---	0.00	29.869 
02:05	59.6	59.6	59.6	83	54.4	0	0	---	0.00	29.869 
02:10	59.6	59.6	59.6	83	54.4	0	0	---	0.00	29.869 
02:15	59.6	59.6	59.6	84	54.8	0	0	---	0.00	29.869 
02:20	59.6	59.6	59.6	84	54.8	0	0	---	0.00	29.869 
02:25	59.6	59.6	59.6	84	54.8	0	0	---	0.00	29.869 
02:30	59.5	59.5	59.5	84	54.7	0	0	---	0.00	29.865 
02:35	59.5	59.5	59.5	84	54.7	0	0	---	0.00	29.865 
02:40	59.3	59.3	59.3	84	54.5	0	0	---	0.00	29.865 
02:45	59.3	59.3	59.3	84	54.5	0	0	---	0.00	29.870 
02:50	59.2	59.2	59.2	84	54.4	0	0	---	0.00	29.870 
02:55	59.2	59.2	59.2	84	54.4	0	0	---	0.00	29.870 
03:00	59.2	59.2	59.2	84	54.4	0	0	---	0.00	29.873 
03:05	59.0	59.0	59.0	84	54.2	0	0	---	0.00	29.873 
03:10	59.0	59.0	59.0	84	54.2	0	0	---	0.00	29.873 
03:15	58.9	58.9	58.9	84	54.1	0	0	---	0.00	29.868 
03:20	58.9	58.9	58.9	85	54.4	0	0	---	0.00	29.868 
03:25	58.9	58.9	58.9	85	54.4	0	0	---	0.00	29.868 
03:30	58.9	58.9	58.9	85	54.4	0	0	---	0.00	29.868 
03:35	58.9	58.9	58.9	85	54.4	0	0	---	0.00	29.868 
03:40	58.9	58.9	58.9	85	54.4	0	0	---	0.00	29.868 
03:45	58.7	58.7	58.7	85	54.2	0	0	---	0.00	29.870 
03:50	58.7	58.7	58.7	86	54.5	0	0	---	0.00	29.870 
03:55	58.7	58.7	58.7	86	54.5	0	0	---	0.00	29.870 
04:00	58.6	58.6	58.6	86	54.4	0	0	---	0.00	29.871 
04:05	58.6	58.6	58.6	86	54.4	0	0	---	0.00	29.871 
04:10	58.4	58.4	58.4	86	54.2	0	0	---	0.00	29.871 
04:15	58.4	58.4	58.4	87	54.5	0	0	---	0.00	29.874 
04:20	58.3	58.3	58.3	87	54.4	0	0	---	0.00	29.874 
04:25	58.3	58.3	58.3	87	54.4	0	0	---	0.00	29.874 
04:30	58.3	58.3	58.3	87	54.4	0	0	---	0.00	29.871 
04:35	58.1	58.1	58.1	88	54.6	0	0	---	0.00	29.871 
04:40	58.1	58.1	58.1	88	54.6	0	0	---	0.00	29.871 
04:45	58.3	58.3	58.3	88	54.8	0	0	---	0.00	29.878 
04:50	58.3	58.3	58.3	88	54.8	0	0	---	0.00	29.878 
04:55	58.3	58.3	58.3	88	54.8	0	0	---	0.00	29.878 
05:00	58.4	58.4	58.4	88	54.9	0	0	---	0.00	29.876 
05:05	58.4	58.4	58.4	88	54.9	0	0	---	0.00	29.876 
05:10	58.6	58.6	58.6	88	55.1	0	0	---	0.00	29.876 
05:15	58.6	58.6	58.6	88	55.1	0	0	---	0.00	29.877 
05:20	58.7	58.7	58.7	88	55.2	0	0	---	0.00	29.877 
05:25	58.7	58.7	58.7	88	55.2	0	0	---	0.00	29.877 
05:30	58.9	58.9	58.9	88	55.3	0	0	---	0.00	29.876 
05:35	59.0	59.0	59.0	88	55.4	0	0	---	0.00	29.876 
05:40	59.0	59.0	59.0	88	55.4	0	0	---	0.00	29.876 
05:45	59.2	59.2	59.2	88	55.6	0	0	---	0.00	29.877 
05:50	59.3	59.3	59.3	88	55.7	0	0	---	0.00	29.877 
05:55	59.5	59.5	59.5	88	55.9	0	0	---	0.00	29.877 
06:00	59.6	59.6	59.6	88	56.0	0	0	---	0.00	29.878 
06:05	59.6	59.6	59.6	88	56.0	0	0	---	0.00	29.878 
06:10	59.6	59.6	59.6	88	56.0	0	0	---	0.00	29.878 
06:15	59.6	59.6	59.6	88	56.0	0	0	---	0.00	29.887 
06:20	59.6	59.6	59.6	88	56.0	0	0	---	0.00	29.887 
06:25	59.5	59.5	59.5	88	55.9	0	0	---	0.00	29.887 
06:30	59.5	59.5	59.5	88	55.9	0	0	---	0.00	29.892 
06:35	59.3	59.3	59.3	88	55.7	0	0	---	0.00	29.892 
06:40	59.3	59.3	59.3	88	55.7	0	0	---	0.00	29.892 
06:45	59.3	59.3	59.3	88	55.7	0	0	---	0.00	29.896 
06:50	59.3	59.3	59.3	88	55.7	0	0	---	0.00	29.896 
06:55	59.3	59.3	59.3	88	55.7	0	0	---	0.00	29.896 
07:00	59.5	59.5	59.5	88	55.9	0	0	---	0.00	29.897 
07:05	59.5	59.5	59.5	88	55.9	0	0	---	0.00	29.897 
07:10	59.8	59.8	59.8	88	56.2	0	0	---	0.00	29.897 
07:15	59.9	59.9	59.9	88	56.3	0	0	---	0.00	29.905 
07:20	60.2	60.2	60.2	88	56.6	0	0	---	0.00	29.905 
07:25	60.4	60.4	60.4	88	56.8	0	1	315	0.00	29.905 
07:30	60.9	60.9	60.9	88	57.3	0	1	315	0.00	29.910 
07:35	61.3	61.3	61.3	87	57.4	0	1	315	0.00	29.910 
07:40	61.8	61.8	61.8	86	57.6	0	1	315	0.00	29.910 
07:45	62.3	62.3	62.3	85	57.7	0	1	315	0.00	29.911 
07:50	62.7	62.7	62.7	84	57.8	0	1	315	0.00	29.911 
07:55	63.2	63.2	63.2	83	57.9	0	1	315	0.00	29.911 
08:00	63.9	63.9	63.9	82	58.3	0	1	315	0.00	29.908 
08:05	64.3	64.3	64.3	80	58.0	0	1	315	0.00	29.908 
08:10	65.0	65.0	65.0	78	58.0	0	1	315	0.00	29.908 
08:15	65.5	65.5	65.5	76	57.7	0	2	315	0.00	29.909 
08:20	66.1	66.1	66.1	74	57.6	0	2	315	0.00	29.909 
08:25	66.8	66.8	66.8	73	57.9	0	2	315	0.00	29.909 
08:30	67.3	67.3	67.3	72	58.0	0	1	315	0.00	29.910 
08:35	67.8	67.8	67.8	70	57.6	0	2	315	0.00	29.910 
08:40	68.1	68.1	68.1	70	57.9	0	2	315	0.00	29.910 
08:45	68.6	68.6	68.6	69	58.0	0	1	315	0.00	29.911 
08:50	69.1	69.1	69.1	68	58.1	0	1	315	0.00	29.911 
08:55	69.6	69.6	69.6	67	58.1	0	2	315	0.00	29.911 
09:00	69.9	69.9	69.9	68	58.8	0	1	315	0.00	29.911 
09:05	70.3	70.3	70.3	66	58.4	0	2	315	0.00	29.911 
09:10	70.9	70.9	70.9	66	59.0	0	1	315	0.00	29.911 
09:15	71.1	71.1	71.1	63	57.9	1	3	315	0.00	29.919 
09:20	71.5	71.5	71.5	62	57.8	1	3	315	0.00	29.919 
09:25	71.5	71.5	71.5	62	57.8	0	3	315	0.00	29.919 
09:30	71.6	71.6	71.6	61	57.4	1	2	315	0.00	29.917 
09:35	71.8	71.8	71.8	62	58.1	1	3	315	0.00	29.917 
09:40	72.0	72.0	72.0	60	57.3	1	3	315	0.00	29.917 
09:45	72.3	72.3	72.3	61	58.1	1	3	315	0.00	29.919 
09:50	72.7	72.7	72.7	60	58.0	0	2	315	0.00	29.919 
09:55	73.2	73.2	73.2	58	57.5	0	3	315	0.00	29.919 
10:00	73.7	73.7	73.7	58	58.0	0	3	315	0.00	29.921 
10:05	74.0	74.0	74.0	57	57.8	0	2	315	0.00	29.921 
10:10	74.2	74.2	74.2	57	58.0	0	2	315	0.00	29.921 
10:15	74.6	74.6	74.6	57	58.3	0	3	315	0.00	29.926 
10:20	74.7	74.7	74.7	55	57.4	0	2	315	0.00	29.926 
10:25	74.7	74.7	74.7	56	57.9	1	3	315	0.00	29.926 
10:30	75.3	75.3	77.6	57	59.0	0	2	315	0.00	29.926 
10:35	75.6	75.6	77.8	56	58.8	0	2	315	0.00	29.926 
10:40	76.0	76.0	78.1	53	57.6	0	2	315	0.00	29.926 
10:45	76.0	76.0	78.1	54	58.1	1	2	315	0.00	29.928 
10:50	76.0	76.0	78.1	55	58.6	1	2	315	0.00	29.928 
10:55	75.8	75.8	78.0	54	57.9	1	3	315	0.00	29.928 
11:00	76.0	76.0	78.1	54	58.1	2	4	315	0.00	29.927 
11:05	76.1	76.1	78.1	52	57.2	1	4	292	0.00	29.927 
11:10	76.7	76.7	78.5	53	58.3	1	3	292	0.00	29.927 
11:15	76.8	76.8	78.6	54	58.9	1	3	292	0.00	29.933 
11:20	77.2	77.2	78.7	51	57.6	1	4	292	0.00	29.933 
11:25	77.4	77.4	78.9	53	58.9	0	2	292	0.00	29.933 
11:30	77.6	77.6	79.0	52	58.6	1	2	292	0.00	29.933 
11:35	77.7	77.7	79.0	50	57.6	2	4	292	0.00	29.933 
11:40	77.9	77.9	79.2	51	58.3	1	3	292	0.00	29.933 
11:45	77.7	77.7	79.1	51	58.1	2	6	292	0.00	29.935 
11:50	77.7	77.7	79.1	51	58.1	1	5	292	0.00	29.935 
11:55	77.9	77.9	79.3	53	59.4	1	5	292	0.00	29.935 
12:00	77.7	77.7	79.0	49	57.0	2	5	292	0.00	29.933 
12:05	77.7	77.7	79.0	50	57.6	1	3	270	0.00	29.933 
12:10	77.9	77.9	79.1	49	57.2	2	6	270	0.00	29.933 
12:15	78.1	78.1	79.3	50	57.9	2	5	338	0.00	29.926 
12:20	78.6	78.6	79.7	50	58.4	1	3	270	0.00	29.926 
12:25	78.5	78.5	79.4	46	56.0	2	5	292	0.00	29.926 
12:30	78.1	78.1	79.2	48	56.8	2	4	270	0.00	29.926 
12:35	78.3	78.3	79.3	48	57.0	2	5	270	0.00	29.926 
12:40	78.6	78.6	79.6	49	57.8	1	2	270	0.00	29.926 
12:45	78.6	78.6	79.4	45	55.5	2	5	292	0.00	29.925 
12:50	78.6	78.6	79.4	45	55.5	1	5	292	0.00	29.925 
12:55	78.5	78.5	79.4	46	56.0	2	6	270	0.00	29.925 
13:00	78.8	78.8	79.6	46	56.2	1	4	270	0.00	29.924 
13:05	79.2	79.2	79.7	44	55.4	2	5	292	0.00	29.924 
13:10	79.0	79.0	79.6	44	55.2	2	5	270	0.00	29.924 
13:15	79.2	79.2	79.5	42	54.1	2	5	270	0.00	29.925 
13:20	78.6	78.6	79.4	45	55.5	2	4	270	0.00	29.925 
13:25	78.5	78.5	79.2	44	54.7	2	5	292	0.00	29.925 
13:30	78.1	78.1	79.0	45	55.0	2	5	315	0.00	29.925 
13:35	78.6	78.6	79.4	46	56.1	1	5	292	0.00	29.925 
13:40	78.8	78.8	79.4	44	55.0	1	4	270	0.00	29.925 
13:45	78.6	78.6	79.2	43	54.2	1	4	270	0.00	29.923 
13:50	78.5	78.5	79.2	44	54.7	1	4	270	0.00	29.923 
13:55	78.8	78.8	79.4	44	55.0	1	4	270	0.00	29.923 
14:00	79.4	79.4	79.8	43	54.9	1	3	292	0.00	29.924 
14:05	79.2	79.2	79.5	42	54.1	0	2	292	0.00	29.924 
14:10	79.0	79.0	79.5	43	54.6	2	5	292	0.00	29.924 
14:15	79.2	79.2	79.5	42	54.1	2	6	292	0.00	29.924 
14:20	79.4	79.4	79.8	43	54.9	2	4	270	0.00	29.924 
14:25	79.2	79.2	79.5	42	54.1	2	7	270	0.00	29.924 
14:30	79.4	79.4	79.8	43	54.9	2	5	292	0.00	29.921 
14:35	79.9	79.9	80.1	43	55.4	0	3	315	0.00	29.921 
14:40	79.9	79.9	80.2	44	56.0	3	5	270	0.00	29.921 
14:45	79.9	79.9	80.0	42	54.7	1	5	270	0.00	29.918 
14:50	80.1	80.1	80.2	42	54.9	1	3	270	0.00	29.918 
14:55	80.3	80.3	80.3	42	55.1	1	4	270	0.00	29.918 
15:00	79.9	79.9	80.2	44	56.0	1	5	292	0.00	29.917 
15:05	79.4	79.4	79.9	45	56.2	2	6	292	0.00	29.917 
15:10	79.2	79.2	79.8	46	56.6	1	4	292	0.00	29.917 
15:15	79.0	79.0	79.5	43	54.6	1	4	292	0.00	29.923 
15:20	78.6	78.6	79.2	42	53.6	2	4	292	0.00	29.923 
15:25	78.6	78.6	79.2	43	54.2	2	8	292	0.00	29.923 
15:30	78.8	78.8	79.5	45	55.6	1	4	270	0.00	29.918 
15:35	79.0	79.0	79.6	44	55.2	1	3	270	0.00	29.918 
15:40	79.4	79.4	79.8	44	55.6	2	5	270	0.00	29.918 
15:45	79.8	79.8	80.1	44	55.9	2	4	270	0.00	29.923 
15:50	79.9	79.9	80.1	43	55.4	2	5	270	0.00	29.923 
15:55	79.2	79.2	79.7	44	55.4	3	5	292	0.00	29.923 
16:00	79.2	79.2	79.8	45	56.0	2	5	292	0.00	29.914 
16:05	79.4	79.4	79.8	44	55.6	3	6	338	0.00	29.914 
16:10	79.2	79.2	79.8	45	56.0	2	3	315	0.00	29.914 
16:15	79.6	79.6	80.0	44	55.7	2	5	315	0.00	29.921 
16:20	79.4	79.4	79.9	45	56.2	1	4	292	0.00	29.921 
16:25	79.2	79.2	79.7	44	55.4	2	7	292	0.00	29.921 
16:30	78.6	78.6	79.4	45	55.5	2	4	292	0.00	29.923 
16:35	78.6	78.6	79.5	47	56.7	1	4	292	0.00	29.923 
16:40	79.2	79.2	79.7	44	55.4	1	3	292	0.00	29.923 
16:45	79.9	79.9	80.3	45	56.6	2	4	292	0.00	29.917 
16:50	79.9	79.9	80.3	45	56.6	2	4	292	0.00	29.917 
16:55	79.2	79.2	79.8	46	56.6	1	4	292	0.00	29.917 
17:00	78.8	78.8	79.6	46	56.2	1	2	292	0.00	29.925 
17:05	78.8	78.8	79.5	45	55.6	2	6	292	0.00	29.925 
17:10	78.6	78.6	79.3	44	54.8	2	5	315	0.00	29.925 
17:15	78.5	78.5	79.4	47	56.6	1	4	270	0.00	29.924 
17:20	78.3	78.3	79.2	46	55.8	1	3	270	0.00	29.924 
17:25	78.1	78.1	79.2	47	56.2	1	3	270	0.00	29.924 
17:30	78.3	78.3	79.3	47	56.4	1	4	270	0.00	29.925 
17:35	78.5	78.5	79.4	47	56.6	2	4	270	0.00	29.925 
17:40	78.5	78.5	79.4	47	56.6	2	4	270	0.00	29.925 
17:45	78.3	78.3	79.3	48	57.0	1	4	270	0.00	29.923 
17:50	78.5	78.5	79.4	47	56.6	1	3	270	0.00	29.923 
17:55	78.6	78.6	79.5	47	56.7	1	3	270	0.00	29.923 
18:00	78.5	78.5	79.4	46	56.0	2	4	270	0.00	29.925 
18:05	78.5	78.5	79.5	48	57.2	1	5	292	0.00	29.925 
18:10	78.5	78.5	79.4	47	56.6	3	6	270	0.00	29.925 
18:15	78.3	78.3	79.2	46	55.8	3	6	270	0.00	29.920 
18:20	78.3	78.3	79.3	47	56.4	1	4	270	0.00	29.920 
18:25	78.3	78.3	79.3	47	56.4	2	4	292	0.00	29.920 
18:30	78.1	78.1	79.2	47	56.2	2	5	292	0.00	29.917 
18:35	77.9	77.9	79.0	46	55.4	2	5	292	0.00	29.917 
18:40	77.7	77.7	78.9	47	55.8	1	4	292	0.00	29.917 
18:45	77.9	77.9	79.0	47	56.0	1	4	338	0.00	29.913 
18:50	77.7	77.7	78.9	47	55.8	1	5	292	0.00	29.913 
18:55	77.7	77.7	78.9	47	55.8	1	4	292	0.00	29.913 
19:00	77.6	77.6	78.8	47	55.8	1	3	292	0.00	29.910 
19:05	77.4	77.4	78.7	47	55.6	1	3	292	0.00	29.910 
19:10	77.0	77.0	78.6	49	56.4	0	1	292	0.00	29.910 
19:15	76.8	76.8	78.5	49	56.2	0	2	292	0.00	29.907 
19:20	76.8	76.8	78.5	49	56.2	1	4	292	0.00	29.907 
19:25	76.7	76.7	78.4	50	56.6	0	2	270	0.00	29.907 
19:30	76.5	76.5	78.3	50	56.5	0	2	270	0.00	29.907 
19:35	76.3	76.3	78.2	50	56.3	0	1	270	0.00	29.907 
19:40	76.1	76.1	78.1	51	56.6	0	1	270	0.00	29.907 
19:45	76.0	76.0	78.1	49	55.4	0	1	270	0.00	29.902 
19:50	75.8	75.8	78.0	50	55.8	0	0	---	0.00	29.902 
19:55	75.6	75.6	77.9	50	55.6	0	0	---	0.00	29.902 
20:00	75.4	75.4	77.8	48	54.3	0	1	270	0.00	29.907 
20:05	75.3	75.3	77.7	48	54.2	0	1	270	0.00	29.907 
20:10	75.3	75.3	77.7	49	54.8	0	0	---	0.00	29.907 
20:15	75.1	75.1	77.7	50	55.2	0	0	---	0.00	29.908 
20:20	75.1	75.1	77.6	52	56.3	0	0	---	0.00	29.908 
20:25	74.9	74.9	74.9	51	55.5	0	0	---	0.00	29.908 
20:30	74.6	74.6	74.6	50	54.7	0	0	---	0.00	29.916 
20:35	74.2	74.2	74.2	51	54.9	0	0	---	0.00	29.916 
20:40	74.0	74.0	74.0	52	55.2	0	0	---	0.00	29.916 
20:45	73.7	73.7	73.7	54	56.0	0	0	---	0.00	29.922 
20:50	73.3	73.3	73.3	55	56.1	0	0	---	0.00	29.922 
20:55	73.0	73.0	73.0	56	56.4	0	0	---	0.00	29.922 
21:00	72.5	72.5	72.5	58	56.9	0	0	---	0.00	29.931 
21:05	72.1	72.1	72.1	59	57.0	0	0	---	0.00	29.931 
21:10	71.8	71.8	71.8	59	56.7	0	0	---	0.00	29.931 
21:15	71.5	71.5	71.5	60	56.9	0	0	---	0.00	29.934 
21:20	70.9	70.9	70.9	61	56.8	0	0	---	0.00	29.934 
21:25	70.6	70.6	70.6	62	56.9	0	0	---	0.00	29.934 
21:30	70.3	70.3	70.3	63	57.1	0	0	---	0.00	29.940 
21:35	69.9	69.9	69.9	63	56.7	0	0	---	0.00	29.940 
21:40	69.6	69.6	69.6	64	56.9	0	0	---	0.00	29.940 
21:45	69.3	69.3	69.3	65	57.0	0	0	---	0.00	29.950 
21:50	68.9	68.9	68.9	66	57.1	0	0	---	0.00	29.950 
21:55	68.8	68.8	68.8	66	57.0	0	0	---	0.00	29.950 
22:00	68.4	68.4	68.4	67	57.0	0	0	---	0.00	29.958 
22:05	68.3	68.3	68.3	67	56.9	0	0	---	0.00	29.958 
22:10	68.1	68.1	68.1	69	57.5	0	0	---	0.00	29.958 
22:15	68.1	68.1	68.1	70	57.9	0	0	---	0.00	29.966 
22:20	67.9	67.9	67.9	72	58.5	0	0	---	0.00	29.966 
22:25	67.9	67.9	67.9	72	58.5	0	0	---	0.00	29.966 
22:30	67.8	67.8	67.8	73	58.8	0	0	---	0.00	29.968 
22:35	67.8	67.8	67.8	73	58.8	0	0	---	0.00	29.968 
22:40	67.8	67.8	67.8	73	58.8	0	0	---	0.00	29.968 
22:45	67.6	67.6	67.6	74	59.0	0	0	---	0.00	29.972 
22:50	67.4	67.4	67.4	75	59.2	0	0	---	0.00	29.972 
22:55	67.3	67.3	67.3	75	59.1	0	0	---	0.00	29.972 
23:00	67.1	67.1	67.1	75	58.9	0	0	---	0.00	29.973 
23:05	66.9	66.9	66.9	75	58.7	0	0	---	0.00	29.973 
23:10	66.9	66.9	66.9	75	58.7	0	0	---	0.00	29.973 
23:15	66.8	66.8	66.8	75	58.6	0	0	---	0.00	29.968 
23:20	66.6	66.6	66.6	75	58.4	0	0	---	0.00	29.968 
23:25	66.4	66.4	66.4	76	58.6	0	0	---	0.00	29.968 
23:30	66.3	66.3	66.3	77	58.9	0	0	---	0.00	29.969 
23:35	66.1	66.1	66.1	77	58.7	0	0	---	0.00	29.969 
23:40	66.0	66.0	66.0	77	58.6	0	0	---	0.00	29.969 
23:45	65.8	65.8	65.8	78	58.7	0	0	---	0.00	29.972 
23:50	65.6	65.6	65.6	78	58.5	0	0	---	0.00	29.972 
23:55	65.5	65.5	65.5	79	58.8	0	0	---	0.00	29.972 

CoCoRaHS
IN-AL-39
A2 Web Hosting
Creative Commons License
GoDaddy
search engine by freefind advanced

loaded 2018-11-17 13:13:11 • last modified 2010-11-18 10:43:29
Privacy PolicyDisclaimer
• wx.awcolley.com is powered by PmWiki v.2002016 •
• all content (unless otherwise noted) © 2018 A W Colley